createdAt,value
2019-05-10T00:00:18.816Z,996.58
2019-05-10T00:01:18.811Z,996.65
2019-05-10T00:02:18.797Z,996.61
2019-05-10T00:03:18.785Z,996.60
2019-05-10T00:04:18.767Z,996.68
2019-05-10T00:05:18.787Z,996.62
2019-05-10T00:06:18.749Z,996.63
2019-05-10T00:07:18.738Z,996.70
2019-05-10T00:08:18.724Z,996.65
2019-05-10T00:09:18.711Z,996.56
2019-05-10T00:10:18.704Z,996.65
2019-05-10T00:11:18.705Z,996.64
2019-05-10T00:12:18.686Z,996.63
2019-05-10T00:13:18.698Z,996.57
2019-05-10T00:14:18.693Z,996.56
2019-05-10T00:15:18.660Z,996.58
2019-05-10T00:16:18.674Z,996.65
2019-05-10T00:17:18.619Z,996.60
2019-05-10T00:18:18.606Z,996.59
2019-05-10T00:19:18.595Z,996.63
2019-05-10T00:20:18.593Z,996.58
2019-05-10T00:21:18.591Z,996.60
2019-05-10T00:22:18.614Z,996.57
2019-05-10T00:23:18.558Z,996.57
2019-05-10T00:24:18.541Z,996.59
2019-05-10T00:25:18.527Z,996.57
2019-05-10T00:26:18.525Z,996.57
2019-05-10T00:27:18.513Z,996.61
2019-05-10T00:28:18.507Z,996.57
2019-05-10T00:29:18.487Z,996.58
2019-05-10T00:30:18.484Z,996.62
2019-05-10T00:31:18.469Z,996.65
2019-05-10T00:32:18.461Z,996.62
2019-05-10T00:33:18.484Z,996.71
2019-05-10T00:34:18.442Z,996.65
2019-05-10T00:35:18.423Z,996.66
2019-05-10T00:36:18.408Z,996.68
2019-05-10T00:37:18.397Z,996.67
2019-05-10T00:38:18.381Z,996.67
2019-05-10T00:39:19.579Z,996.70
2019-05-10T00:40:18.363Z,996.64
2019-05-10T00:41:18.359Z,996.67
2019-05-10T00:42:18.342Z,996.68
2019-05-10T00:43:18.355Z,996.72
2019-05-10T00:44:18.316Z,996.71
2019-05-10T00:45:18.312Z,996.64
2019-05-10T00:46:18.296Z,996.66
2019-05-10T00:47:18.281Z,996.71
2019-05-10T00:48:18.275Z,996.66
2019-05-10T00:49:18.273Z,996.67
2019-05-10T00:50:18.244Z,996.66
2019-05-10T00:51:18.234Z,996.68
2019-05-10T00:52:18.225Z,996.69
2019-05-10T00:53:18.218Z,996.71
2019-05-10T00:54:18.217Z,996.69
2019-05-10T00:55:19.520Z,996.71
2019-05-10T00:56:18.181Z,996.73
2019-05-10T00:57:18.236Z,996.67
2019-05-10T00:58:18.157Z,996.78
2019-05-10T00:59:18.146Z,996.74
2019-05-10T01:00:18.136Z,996.78
2019-05-10T01:01:18.758Z,996.73
2019-05-10T01:02:18.114Z,996.80
2019-05-10T01:03:18.122Z,996.78
2019-05-10T01:04:18.102Z,996.81
2019-05-10T01:05:18.086Z,996.85
2019-05-10T01:06:18.064Z,996.79
2019-05-10T01:07:18.063Z,996.78
2019-05-10T01:08:18.089Z,996.86
2019-05-10T01:09:18.074Z,996.84
2019-05-10T01:10:18.081Z,996.86
2019-05-10T01:11:18.012Z,996.82
2019-05-10T01:12:18.002Z,996.80
2019-05-10T01:13:17.988Z,996.79
2019-05-10T01:14:17.979Z,996.82
2019-05-10T01:15:17.961Z,996.84
2019-05-10T01:16:17.969Z,996.80
2019-05-10T01:17:17.935Z,996.84
2019-05-10T01:18:17.928Z,996.85
2019-05-10T01:19:17.918Z,996.80
2019-05-10T01:20:17.927Z,996.85
2019-05-10T01:21:17.890Z,996.88
2019-05-10T01:22:17.879Z,996.86
2019-05-10T01:23:17.880Z,996.86
2019-05-10T01:24:17.860Z,996.83
2019-05-10T01:25:33.730Z,996.90
2019-05-10T01:26:18.853Z,996.87
2019-05-10T01:27:17.836Z,996.89
2019-05-10T01:28:17.810Z,996.90
2019-05-10T01:29:17.807Z,996.88
2019-05-10T01:30:17.793Z,996.92
2019-05-10T01:31:17.798Z,996.90
2019-05-10T01:32:17.773Z,996.94
2019-05-10T01:33:17.767Z,996.92
2019-05-10T01:34:17.747Z,996.93
2019-05-10T01:35:17.741Z,996.91
2019-05-10T01:36:17.754Z,996.98
2019-05-10T01:37:17.717Z,996.93
2019-05-10T01:38:17.708Z,997.00
2019-05-10T01:39:17.692Z,996.96
2019-05-10T01:40:17.675Z,996.98
2019-05-10T01:41:17.672Z,996.93
2019-05-10T01:42:17.687Z,996.94
2019-05-10T01:43:17.641Z,996.88
2019-05-10T01:44:17.638Z,996.93
2019-05-10T01:45:17.620Z,996.94
2019-05-10T01:46:17.628Z,996.95
2019-05-10T01:47:17.595Z,996.94
2019-05-10T01:48:17.596Z,996.95
2019-05-10T01:49:17.577Z,996.93
2019-05-10T01:50:17.582Z,996.93
2019-05-10T01:51:17.554Z,996.96
2019-05-10T01:52:17.542Z,996.90
2019-05-10T01:53:17.546Z,996.94
2019-05-10T01:54:17.522Z,996.93
2019-05-10T01:55:17.511Z,996.90
2019-05-10T01:56:17.494Z,996.92
2019-05-10T01:57:17.482Z,996.97
2019-05-10T01:58:17.485Z,996.94
2019-05-10T01:59:17.482Z,997.00
2019-05-10T02:00:17.449Z,997.01
2019-05-10T02:01:17.441Z,996.98
2019-05-10T02:02:17.423Z,996.93
2019-05-10T02:03:17.430Z,997.04
2019-05-10T02:04:18.026Z,996.98
2019-05-10T02:05:17.397Z,996.97
2019-05-10T02:06:17.385Z,997.00
2019-05-10T02:07:17.423Z,997.03
2019-05-10T02:08:17.375Z,997.04
2019-05-10T02:09:17.346Z,997.03
2019-05-10T02:10:17.331Z,997.04
2019-05-10T02:11:17.324Z,997.11
2019-05-10T02:12:17.316Z,997.10
2019-05-10T02:13:17.307Z,997.09
2019-05-10T02:14:17.291Z,997.05
2019-05-10T02:15:17.285Z,997.09
2019-05-10T02:16:17.267Z,997.09
2019-05-10T02:17:17.259Z,997.04
2019-05-10T02:18:17.254Z,997.05
2019-05-10T02:19:17.244Z,997.03
2019-05-10T02:20:17.224Z,997.00
2019-05-10T02:21:17.213Z,997.08
2019-05-10T02:22:17.195Z,997.04
2019-05-10T02:23:17.209Z,997.07
2019-05-10T02:24:17.178Z,997.04
2019-05-10T02:25:17.158Z,997.05
2019-05-10T02:26:17.159Z,997.06
2019-05-10T02:27:17.142Z,997.11
2019-05-10T02:28:17.147Z,997.11
2019-05-10T02:29:17.123Z,997.08
2019-05-10T02:30:17.108Z,997.11
2019-05-10T02:31:21.251Z,997.10
2019-05-10T02:32:17.085Z,997.10
2019-05-10T02:33:17.070Z,997.12
2019-05-10T02:34:17.073Z,997.10
2019-05-10T02:35:17.073Z,997.16
2019-05-10T02:36:17.049Z,997.08
2019-05-10T02:37:17.033Z,997.15
2019-05-10T02:38:17.015Z,997.12
2019-05-10T02:39:17.012Z,997.16
2019-05-10T02:40:16.990Z,997.16
2019-05-10T02:41:16.987Z,997.22
2019-05-10T02:42:16.968Z,997.15
2019-05-10T02:43:16.956Z,997.20
2019-05-10T02:44:16.948Z,997.18
2019-05-10T02:45:16.959Z,997.19
2019-05-10T02:46:16.919Z,997.24
2019-05-10T02:47:16.917Z,997.21
2019-05-10T02:48:16.918Z,997.24
2019-05-10T02:49:16.892Z,997.21
2019-05-10T02:50:16.908Z,997.24
2019-05-10T02:51:16.871Z,997.21
2019-05-10T02:52:16.855Z,997.21
2019-05-10T02:53:16.841Z,997.23
2019-05-10T02:54:16.829Z,997.24
2019-05-10T02:55:16.830Z,997.17
2019-05-10T02:56:29.617Z,997.26
2019-05-10T02:57:17.793Z,997.29
2019-05-10T02:58:16.787Z,997.28
2019-05-10T02:59:16.779Z,997.30
2019-05-10T03:00:16.784Z,997.30
2019-05-10T03:01:16.746Z,997.32
2019-05-10T03:02:16.739Z,997.28
2019-05-10T03:03:16.730Z,997.35
2019-05-10T03:04:16.715Z,997.29
2019-05-10T03:05:16.800Z,997.34
2019-05-10T03:06:16.705Z,997.35
2019-05-10T03:07:16.688Z,997.46
2019-05-10T03:08:16.720Z,997.44
2019-05-10T03:09:16.655Z,997.45
2019-05-10T03:10:16.652Z,997.51
2019-05-10T03:11:16.647Z,997.50
2019-05-10T03:12:16.689Z,997.52
2019-05-10T03:13:16.613Z,997.57
2019-05-10T03:14:16.610Z,997.55
2019-05-10T03:15:16.590Z,997.57
2019-05-10T03:16:16.600Z,997.58
2019-05-10T03:17:16.578Z,997.57
2019-05-10T03:18:16.557Z,997.59
2019-05-10T03:19:16.544Z,997.62
2019-05-10T03:20:16.534Z,997.63
2019-05-10T03:21:16.543Z,997.70
2019-05-10T03:22:16.515Z,997.66
2019-05-10T03:23:16.505Z,997.66
2019-05-10T03:24:16.515Z,997.70
2019-05-10T03:25:16.492Z,997.69
2019-05-10T03:26:16.511Z,997.64
2019-05-10T03:27:16.452Z,997.74
2019-05-10T03:28:16.447Z,997.71
2019-05-10T03:29:16.443Z,997.77
2019-05-10T03:30:16.420Z,997.73
2019-05-10T03:31:16.412Z,997.78
2019-05-10T03:32:16.412Z,997.79
2019-05-10T03:33:16.413Z,997.81
2019-05-10T03:34:16.422Z,997.77
2019-05-10T03:35:16.372Z,997.82
2019-05-10T03:36:16.349Z,997.79
2019-05-10T03:37:16.397Z,997.87
2019-05-10T03:38:16.399Z,997.82
2019-05-10T03:39:16.319Z,997.88
2019-05-10T03:40:16.313Z,997.80
2019-05-10T03:41:16.296Z,997.88
2019-05-10T03:42:16.276Z,997.90
2019-05-10T03:43:16.287Z,997.88
2019-05-10T03:44:16.256Z,997.89
2019-05-10T03:45:16.249Z,997.78
2019-05-10T03:46:16.239Z,997.87
2019-05-10T03:47:16.232Z,997.86
2019-05-10T03:48:16.228Z,997.84
2019-05-10T03:49:16.205Z,997.83
2019-05-10T03:50:16.203Z,997.89
2019-05-10T03:51:16.187Z,997.93
2019-05-10T03:52:16.170Z,997.91
2019-05-10T03:53:16.171Z,997.84
2019-05-10T03:54:16.142Z,997.95
2019-05-10T03:55:16.130Z,997.90
2019-05-10T03:56:16.123Z,997.97
2019-05-10T03:57:16.132Z,997.96
2019-05-10T03:58:16.104Z,997.98
2019-05-10T03:59:16.098Z,997.95
2019-05-10T04:00:16.092Z,997.97
2019-05-10T04:01:16.073Z,998.04
2019-05-10T04:02:16.062Z,998.01
2019-05-10T04:03:16.059Z,998.02
2019-05-10T04:04:16.050Z,998.03
2019-05-10T04:05:16.025Z,998.01
2019-05-10T04:06:16.019Z,998.02
2019-05-10T04:07:15.999Z,998.11
2019-05-10T04:08:15.984Z,998.13
2019-05-10T04:09:15.973Z,998.09
2019-05-10T04:10:20.287Z,998.17
2019-05-10T04:11:16.980Z,998.11
2019-05-10T04:12:15.950Z,998.11
2019-05-10T04:13:15.965Z,998.12
2019-05-10T04:14:15.930Z,998.11
2019-05-10T04:15:15.924Z,998.09
2019-05-10T04:16:15.900Z,998.07
2019-05-10T04:17:15.885Z,998.13
2019-05-10T04:18:15.881Z,998.14
2019-05-10T04:19:15.870Z,998.16
2019-05-10T04:20:15.856Z,998.15
2019-05-10T04:21:15.843Z,998.23
2019-05-10T04:22:15.828Z,998.17
2019-05-10T04:23:15.833Z,998.22
2019-05-10T04:24:15.809Z,998.24
2019-05-10T04:25:15.792Z,998.22
2019-05-10T04:26:15.824Z,998.30
2019-05-10T04:27:30.681Z,998.26
2019-05-10T04:28:16.762Z,998.27
2019-05-10T04:29:15.754Z,998.28
2019-05-10T04:30:15.745Z,998.28
2019-05-10T04:31:15.755Z,998.31
2019-05-10T04:32:15.723Z,998.38
2019-05-10T04:33:15.704Z,998.38
2019-05-10T04:34:15.693Z,998.40
2019-05-10T04:35:15.693Z,998.34
2019-05-10T04:36:15.673Z,998.42
2019-05-10T04:37:15.667Z,998.33
2019-05-10T04:38:15.653Z,998.34
2019-05-10T04:39:15.722Z,998.40
2019-05-10T04:40:15.629Z,998.41
2019-05-10T04:41:15.615Z,998.41
2019-05-10T04:42:15.639Z,998.38
2019-05-10T04:43:15.605Z,998.40
2019-05-10T04:44:15.591Z,998.45
2019-05-10T04:45:15.580Z,998.43
2019-05-10T04:46:15.564Z,998.47
2019-05-10T04:47:15.563Z,998.47
2019-05-10T04:48:15.543Z,998.41
2019-05-10T04:49:15.528Z,998.40
2019-05-10T04:50:15.516Z,998.43
2019-05-10T04:51:15.509Z,998.41
2019-05-10T04:52:15.504Z,998.43
2019-05-10T04:53:15.497Z,998.43
2019-05-10T04:54:15.484Z,998.46
2019-05-10T04:55:15.468Z,998.45
2019-05-10T04:56:15.464Z,998.49
2019-05-10T04:57:15.440Z,998.49
2019-05-10T04:58:15.431Z,998.49
2019-05-10T04:59:15.439Z,998.55
2019-05-10T05:00:15.419Z,998.52
2019-05-10T05:01:15.402Z,998.56
2019-05-10T05:02:15.428Z,998.63
2019-05-10T05:03:15.371Z,998.53
2019-05-10T05:04:15.371Z,998.53
2019-05-10T05:05:15.374Z,998.56
2019-05-10T05:06:15.346Z,998.56
2019-05-10T05:07:15.335Z,998.57
2019-05-10T05:08:15.327Z,998.56
2019-05-10T05:09:15.305Z,998.60
2019-05-10T05:10:15.294Z,998.64
2019-05-10T05:11:15.290Z,998.70
2019-05-10T05:12:15.282Z,998.61
2019-05-10T05:13:15.267Z,998.64
2019-05-10T05:14:15.252Z,998.67
2019-05-10T05:15:15.257Z,998.66
2019-05-10T05:16:15.275Z,998.67
2019-05-10T05:17:15.216Z,998.63
2019-05-10T05:18:15.205Z,998.65
2019-05-10T05:19:15.196Z,998.69
2019-05-10T05:20:15.188Z,998.64
2019-05-10T05:21:15.173Z,998.68
2019-05-10T05:22:15.173Z,998.68
2019-05-10T05:23:15.171Z,998.75
2019-05-10T05:24:17.148Z,998.73
2019-05-10T05:25:16.124Z,998.70
2019-05-10T05:26:15.115Z,998.80
2019-05-10T05:27:15.114Z,998.75
2019-05-10T05:28:18.464Z,998.73
2019-05-10T05:29:16.104Z,998.74
2019-05-10T05:30:15.099Z,998.81
2019-05-10T05:31:15.062Z,998.80
2019-05-10T05:32:15.055Z,998.80
2019-05-10T05:33:15.042Z,998.89
2019-05-10T05:34:15.049Z,998.86
2019-05-10T05:35:15.602Z,998.88
2019-05-10T05:36:15.012Z,998.91
2019-05-10T05:37:14.991Z,998.97
2019-05-10T05:38:14.996Z,998.89
2019-05-10T05:39:14.979Z,998.93
2019-05-10T05:40:14.994Z,998.92
2019-05-10T05:41:14.951Z,998.93
2019-05-10T05:42:14.942Z,998.86
2019-05-10T05:43:14.929Z,998.93
2019-05-10T05:44:14.919Z,998.90
2019-05-10T05:45:14.911Z,998.91
2019-05-10T05:46:15.001Z,998.96
2019-05-10T05:47:14.880Z,998.98
2019-05-10T05:48:16.167Z,998.96
2019-05-10T05:49:15.855Z,998.99
2019-05-10T05:50:14.846Z,998.95
2019-05-10T05:51:14.887Z,998.97
2019-05-10T05:52:14.832Z,999.08
2019-05-10T05:53:14.812Z,999.02
2019-05-10T05:54:19.993Z,999.04
2019-05-10T05:55:15.792Z,998.97
2019-05-10T05:56:14.941Z,999.03
2019-05-10T05:57:14.768Z,999.10
2019-05-10T05:58:25.685Z,999.02
2019-05-10T05:59:17.532Z,999.03
2019-05-10T06:00:15.747Z,999.05
2019-05-10T06:01:24.283Z,999.04
2019-05-10T06:02:15.737Z,998.98
2019-05-10T06:03:19.493Z,998.94
2019-05-10T06:04:15.705Z,999.00
2019-05-10T06:05:32.784Z,999.03
2019-05-10T06:06:21.286Z,999.08
2019-05-10T06:07:15.657Z,998.97
2019-05-10T06:08:22.955Z,999.07
2019-05-10T06:09:15.642Z,999.11
2019-05-10T06:10:17.414Z,999.04
2019-05-10T06:11:14.617Z,999.06
2019-05-10T06:12:14.614Z,999.11
2019-05-10T06:13:14.628Z,999.08
2019-05-10T06:14:14.579Z,999.10
2019-05-10T06:15:14.577Z,999.18
2019-05-10T06:16:14.922Z,999.15
2019-05-10T06:17:14.550Z,999.12
2019-05-10T06:18:14.539Z,999.14
2019-05-10T06:19:14.537Z,999.23
2019-05-10T06:20:14.517Z,999.18
2019-05-10T06:21:17.821Z,999.24
2019-05-10T06:22:15.513Z,999.17
2019-05-10T06:23:14.483Z,999.16
2019-05-10T06:24:15.867Z,999.19
2019-05-10T06:25:14.474Z,999.22
2019-05-10T06:26:24.050Z,999.30
2019-05-10T06:27:15.437Z,999.24
2019-05-10T06:28:26.241Z,999.26
2019-05-10T06:29:17.765Z,999.25
2019-05-10T06:30:14.405Z,999.29
2019-05-10T06:31:14.401Z,999.29
2019-05-10T06:32:14.383Z,999.28
2019-05-10T06:33:14.375Z,999.31
2019-05-10T06:34:14.391Z,999.34
2019-05-10T06:35:19.313Z,999.30
2019-05-10T06:36:15.337Z,999.30
2019-05-10T06:37:14.349Z,999.29
2019-05-10T06:38:14.319Z,999.27
2019-05-10T06:39:14.305Z,999.29
2019-05-10T06:40:14.325Z,999.29
2019-05-10T06:41:16.787Z,999.29
2019-05-10T06:42:14.272Z,999.26
2019-05-10T06:43:15.629Z,999.28
2019-05-10T06:44:14.252Z,999.28
2019-05-10T06:45:16.046Z,999.32
2019-05-10T06:46:14.246Z,999.31
2019-05-10T06:47:14.209Z,999.31
2019-05-10T06:48:14.207Z,999.31
2019-05-10T06:49:14.193Z,999.36
2019-05-10T06:50:14.194Z,999.38
2019-05-10T06:51:14.170Z,999.37
2019-05-10T06:52:16.318Z,999.34
2019-05-10T06:53:14.151Z,999.33
2019-05-10T06:54:14.136Z,999.38
2019-05-10T06:55:14.122Z,999.41
2019-05-10T06:56:14.118Z,999.42
2019-05-10T06:57:17.378Z,999.37
2019-05-10T06:58:15.107Z,999.45
2019-05-10T06:59:19.043Z,999.42
2019-05-10T07:00:15.093Z,999.43
2019-05-10T07:01:14.062Z,999.45
2019-05-10T07:02:14.056Z,999.40
2019-05-10T07:03:14.063Z,999.48
2019-05-10T07:04:14.031Z,999.48
2019-05-10T07:05:14.010Z,999.47
2019-05-10T07:06:14.004Z,999.49
2019-05-10T07:07:22.090Z,999.47
2019-05-10T07:08:20.204Z,999.53
2019-05-10T07:09:14.969Z,999.53
2019-05-10T07:10:19.131Z,999.53
2019-05-10T07:11:14.967Z,999.45
2019-05-10T07:12:15.145Z,999.49
2019-05-10T07:13:13.941Z,999.55
2019-05-10T07:14:13.913Z,999.58
2019-05-10T07:15:13.919Z,999.51
2019-05-10T07:16:14.560Z,999.54
2019-05-10T07:17:14.896Z,999.56
2019-05-10T07:18:16.786Z,999.57
2019-05-10T07:19:14.859Z,999.60
2019-05-10T07:20:13.845Z,999.59
2019-05-10T07:21:13.839Z,999.57
2019-05-10T07:22:13.835Z,999.53
2019-05-10T07:23:13.834Z,999.61
2019-05-10T07:24:18.163Z,999.57
2019-05-10T07:25:14.790Z,999.62
2019-05-10T07:26:17.500Z,999.64
2019-05-10T07:27:14.769Z,999.64
2019-05-10T07:28:15.916Z,999.65
2019-05-10T07:29:29.017Z,999.61
2019-05-10T07:30:14.733Z,999.64
2019-05-10T07:31:13.720Z,999.64
2019-05-10T07:32:16.423Z,999.67
2019-05-10T07:33:14.716Z,999.69
2019-05-10T07:34:15.788Z,999.64
2019-05-10T07:35:13.680Z,999.68
2019-05-10T07:36:15.223Z,999.65
2019-05-10T07:37:13.664Z,999.65
2019-05-10T07:38:13.656Z,999.74
2019-05-10T07:39:13.641Z,999.70
2019-05-10T07:40:13.631Z,999.70
2019-05-10T07:41:19.760Z,999.66
2019-05-10T07:42:14.606Z,999.70
2019-05-10T07:43:24.998Z,999.74
2019-05-10T07:44:14.575Z,999.80
2019-05-10T07:45:13.574Z,999.74
2019-05-10T07:46:13.555Z,999.83
2019-05-10T07:47:13.551Z,999.88
2019-05-10T07:48:13.538Z,999.82
2019-05-10T07:49:13.559Z,999.82
2019-05-10T07:50:13.513Z,999.83
2019-05-10T07:51:13.501Z,999.83
2019-05-10T07:52:13.490Z,999.88
2019-05-10T07:53:16.470Z,999.87
2019-05-10T07:54:14.474Z,999.89
2019-05-10T07:55:17.883Z,999.90
2019-05-10T07:56:14.443Z,999.91
2019-05-10T07:57:13.435Z,999.89
2019-05-10T07:58:13.455Z,999.88
2019-05-10T07:59:16.317Z,999.92
2019-05-10T08:00:14.403Z,999.99
2019-05-10T08:01:13.395Z,999.96
2019-05-10T08:02:14.915Z,999.96
2019-05-10T08:03:17.750Z,999.94
2019-05-10T08:04:19.744Z,999.97
2019-05-10T08:05:15.446Z,999.94
2019-05-10T08:06:15.373Z,999.99
2019-05-10T08:07:13.331Z,1000.01
2019-05-10T08:08:13.317Z,1000.06
2019-05-10T08:09:13.329Z,1000.10
2019-05-10T08:10:13.293Z,1000.09
2019-05-10T08:11:13.284Z,1000.17
2019-05-10T08:12:13.273Z,1000.12
2019-05-10T08:13:15.418Z,1000.18
2019-05-10T08:14:14.262Z,1000.13
2019-05-10T08:15:13.276Z,1000.14
2019-05-10T08:16:19.543Z,1000.15
2019-05-10T08:17:14.214Z,1000.11
2019-05-10T08:18:15.430Z,1000.16
2019-05-10T08:19:14.261Z,1000.22
2019-05-10T08:20:21.392Z,1000.22
2019-05-10T08:21:21.911Z,1000.20
2019-05-10T08:22:14.874Z,1000.24
2019-05-10T08:23:13.238Z,1000.27
2019-05-10T08:24:16.525Z,1000.32
2019-05-10T08:25:15.414Z,1000.29
2019-05-10T08:26:19.706Z,1000.30
2019-05-10T08:27:15.010Z,1000.39
2019-05-10T08:28:13.089Z,1000.40
2019-05-10T08:29:16.736Z,1000.29
2019-05-10T08:30:25.503Z,1000.32
2019-05-10T08:31:14.095Z,1000.35
2019-05-10T08:32:13.043Z,1000.28
2019-05-10T08:33:14.345Z,1000.29
2019-05-10T08:34:13.029Z,1000.31
2019-05-10T08:35:17.209Z,1000.36
2019-05-10T08:36:14.012Z,1000.33
2019-05-10T08:37:13.014Z,1000.38
2019-05-10T08:38:13.142Z,1000.37
2019-05-10T08:39:13.957Z,1000.34
2019-05-10T08:40:13.026Z,1000.27
2019-05-10T08:41:14.676Z,1000.36
2019-05-10T08:42:34.628Z,1000.31
2019-05-10T08:43:16.628Z,1000.29
2019-05-10T08:44:19.272Z,1000.32
2019-05-10T08:45:13.905Z,1000.39
2019-05-10T08:46:12.889Z,1000.38
2019-05-10T08:47:22.371Z,1000.41
2019-05-10T08:48:13.906Z,1000.52
2019-05-10T08:49:13.062Z,1000.43
2019-05-10T08:50:28.894Z,1000.49
2019-05-10T08:51:13.835Z,1000.50
2019-05-10T08:52:12.820Z,1000.45
2019-05-10T08:53:16.279Z,1000.45
2019-05-10T08:54:12.800Z,1000.42
2019-05-10T08:55:12.804Z,1000.37
2019-05-10T08:56:20.598Z,1000.32
2019-05-10T08:57:18.632Z,1000.40
2019-05-10T08:58:13.808Z,1000.31
2019-05-10T08:59:16.360Z,1000.32
2019-05-10T09:00:13.766Z,1000.25
2019-05-10T09:01:24.238Z,1000.30
2019-05-10T09:02:14.671Z,1000.26
2019-05-10T09:03:18.391Z,1000.22
2019-05-10T09:04:13.893Z,1000.33
2019-05-10T09:05:12.730Z,1000.27
2019-05-10T09:06:16.706Z,1000.32
2019-05-10T09:07:12.665Z,1000.39
2019-05-10T09:08:19.571Z,1000.34
2019-05-10T09:09:13.685Z,1000.35
2019-05-10T09:10:13.028Z,1000.41
2019-05-10T09:11:12.616Z,1000.42
2019-05-10T09:12:12.625Z,1000.46
2019-05-10T09:13:12.946Z,1000.50
2019-05-10T09:14:19.752Z,1000.48
2019-05-10T09:15:13.903Z,1000.48
2019-05-10T09:16:13.655Z,1000.52
2019-05-10T09:17:14.792Z,1000.52
2019-05-10T09:18:13.542Z,1000.54
2019-05-10T09:19:12.592Z,1000.54
2019-05-10T09:20:20.727Z,1000.64
2019-05-10T09:21:14.248Z,1000.57
2019-05-10T09:22:12.563Z,1000.60
2019-05-10T09:23:15.233Z,1000.59
2019-05-10T09:24:13.475Z,1000.61
2019-05-10T09:25:13.004Z,1000.62
2019-05-10T09:26:16.352Z,1000.63
2019-05-10T09:27:12.935Z,1000.64
2019-05-10T09:28:16.893Z,1000.67
2019-05-10T09:29:12.415Z,1000.64
2019-05-10T09:30:14.228Z,1000.77
2019-05-10T09:31:20.836Z,1000.78
2019-05-10T09:32:13.384Z,1000.74
2019-05-10T09:33:14.238Z,1000.78
2019-05-10T09:34:12.357Z,1000.64
2019-05-10T09:35:12.934Z,1000.60
2019-05-10T09:36:12.613Z,1000.80
2019-05-10T09:37:14.277Z,1000.72
2019-05-10T09:38:13.319Z,1000.73
2019-05-10T09:39:17.777Z,1000.65
2019-05-10T09:40:13.710Z,1000.66
2019-05-10T09:41:12.282Z,1000.74
2019-05-10T09:42:24.972Z,1000.81
2019-05-10T09:43:14.902Z,1000.77
2019-05-10T09:44:13.051Z,1000.81
2019-05-10T09:45:13.006Z,1000.84
2019-05-10T09:46:14.184Z,1000.83
2019-05-10T09:47:12.211Z,1000.79
2019-05-10T09:48:12.351Z,1000.92
2019-05-10T09:49:17.801Z,1000.87
2019-05-10T09:50:13.178Z,1000.91
2019-05-10T09:51:13.736Z,1000.87
2019-05-10T09:52:13.409Z,1000.92
2019-05-10T09:53:15.346Z,1000.92
2019-05-10T09:54:12.133Z,1001.01
2019-05-10T09:55:14.698Z,1001.05
2019-05-10T09:56:12.129Z,1001.00
2019-05-10T09:57:12.098Z,1000.95
2019-05-10T09:58:12.096Z,1001.00
2019-05-10T09:59:12.081Z,1001.03
2019-05-10T10:00:12.076Z,1001.08
2019-05-10T10:01:18.132Z,1001.03
2019-05-10T10:02:15.651Z,1001.03
2019-05-10T10:03:13.241Z,1001.11
2019-05-10T10:04:12.020Z,1001.07
2019-05-10T10:05:12.010Z,1001.06
2019-05-10T10:06:12.002Z,1001.12
2019-05-10T10:07:11.992Z,1001.11
2019-05-10T10:08:12.015Z,1001.14
2019-05-10T10:09:11.971Z,1001.12
2019-05-10T10:10:12.602Z,1001.17
2019-05-10T10:11:15.661Z,1001.13
2019-05-10T10:12:12.933Z,1001.12
2019-05-10T10:13:14.075Z,1001.14
2019-05-10T10:14:11.926Z,1001.18
2019-05-10T10:15:18.651Z,1001.14
2019-05-10T10:16:14.941Z,1001.16
2019-05-10T10:17:11.882Z,1001.17
2019-05-10T10:18:12.467Z,1001.16
2019-05-10T10:19:12.856Z,1001.14
2019-05-10T10:20:11.885Z,1001.16
2019-05-10T10:21:13.207Z,1001.19
2019-05-10T10:22:13.255Z,1001.16
2019-05-10T10:23:11.815Z,1001.13
2019-05-10T10:24:17.143Z,1001.18
2019-05-10T10:25:12.831Z,1001.23
2019-05-10T10:26:12.663Z,1001.17
2019-05-10T10:27:12.769Z,1001.15
2019-05-10T10:28:16.867Z,1001.12
2019-05-10T10:29:12.748Z,1001.15
2019-05-10T10:30:14.991Z,1001.18
2019-05-10T10:31:26.225Z,1001.15
2019-05-10T10:32:12.720Z,1001.14
2019-05-10T10:33:17.773Z,1001.12
2019-05-10T10:34:12.695Z,1001.11
2019-05-10T10:35:13.236Z,1001.09
2019-05-10T10:36:12.662Z,1001.11
2019-05-10T10:37:14.533Z,1001.14
2019-05-10T10:38:12.658Z,1001.17
2019-05-10T10:39:11.637Z,1001.18
2019-05-10T10:40:14.977Z,1001.28
2019-05-10T10:41:11.615Z,1001.25
2019-05-10T10:42:13.215Z,1001.29
2019-05-10T10:43:11.600Z,1001.29
2019-05-10T10:44:11.579Z,1001.34
2019-05-10T10:45:11.565Z,1001.34
2019-05-10T10:46:12.629Z,1001.36
2019-05-10T10:47:11.556Z,1001.36
2019-05-10T10:48:13.074Z,1001.39
2019-05-10T10:49:14.357Z,1001.37
2019-05-10T10:50:13.675Z,1001.33
2019-05-10T10:51:11.503Z,1001.36
2019-05-10T10:52:13.475Z,1001.36
2019-05-10T10:53:11.475Z,1001.38
2019-05-10T10:54:11.466Z,1001.39
2019-05-10T10:55:13.353Z,1001.35
2019-05-10T10:56:11.465Z,1001.34
2019-05-10T10:57:11.435Z,1001.39
2019-05-10T10:58:11.428Z,1001.43
2019-05-10T10:59:11.419Z,1001.50
2019-05-10T11:00:11.406Z,1001.43
2019-05-10T11:01:21.362Z,1001.43
2019-05-10T11:02:33.431Z,1001.48
2019-05-10T11:03:12.363Z,1001.49
2019-05-10T11:04:11.359Z,1001.48
2019-05-10T11:05:11.355Z,1001.47
2019-05-10T11:06:11.336Z,1001.48
2019-05-10T11:07:11.408Z,1001.50
2019-05-10T11:08:11.355Z,1001.49
2019-05-10T11:09:11.302Z,1001.51
2019-05-10T11:10:18.161Z,1001.50
2019-05-10T11:11:12.332Z,1001.51
2019-05-10T11:12:14.560Z,1001.54
2019-05-10T11:13:18.812Z,1001.50
2019-05-10T11:14:12.489Z,1001.50
2019-05-10T11:15:11.607Z,1001.53
2019-05-10T11:16:15.773Z,1001.54
2019-05-10T11:17:11.242Z,1001.52
2019-05-10T11:18:11.210Z,1001.60
2019-05-10T11:19:15.458Z,1001.56
2019-05-10T11:20:11.711Z,1001.57
2019-05-10T11:21:11.815Z,1001.54
2019-05-10T11:22:11.299Z,1001.57
2019-05-10T11:23:11.168Z,1001.60
2019-05-10T11:24:18.075Z,1001.58
2019-05-10T11:25:13.063Z,1001.62
2019-05-10T11:26:11.121Z,1001.67
2019-05-10T11:27:15.185Z,1001.67
2019-05-10T11:28:12.174Z,1001.66
2019-05-10T11:29:14.215Z,1001.66
2019-05-10T11:30:12.392Z,1001.75
2019-05-10T11:31:11.503Z,1001.63
2019-05-10T11:32:16.257Z,1001.64
2019-05-10T11:33:26.027Z,1001.57
2019-05-10T11:34:12.053Z,1001.67
2019-05-10T11:35:11.927Z,1001.61
2019-05-10T11:36:12.008Z,1001.66
2019-05-10T11:37:10.999Z,1001.64
2019-05-10T11:38:12.938Z,1001.63
2019-05-10T11:39:25.714Z,1001.70
2019-05-10T11:40:11.962Z,1001.64
2019-05-10T11:41:13.516Z,1001.62
2019-05-10T11:42:15.404Z,1001.67
2019-05-10T11:43:10.949Z,1001.67
2019-05-10T11:44:12.049Z,1001.70
2019-05-10T11:45:11.172Z,1001.71
2019-05-10T11:46:11.787Z,1001.75
2019-05-10T11:47:22.992Z,1001.76
2019-05-10T11:48:11.899Z,1001.78
2019-05-10T11:49:10.859Z,1001.70
2019-05-10T11:50:10.894Z,1001.76
2019-05-10T11:51:16.039Z,1001.79
2019-05-10T11:52:13.280Z,1001.80
2019-05-10T11:53:13.391Z,1001.80
2019-05-10T11:54:11.800Z,1001.77
2019-05-10T11:55:11.455Z,1001.86
2019-05-10T11:57:13.853Z,1001.80
2019-05-10T11:58:13.169Z,1001.81
2019-05-10T11:59:04.923Z,1001.85
2019-05-10T11:59:15.892Z,1001.79
2019-05-10T12:00:24.624Z,1001.75
2019-05-10T12:01:17.630Z,1001.82
2019-05-10T12:02:33.828Z,1001.73
2019-05-10T12:03:18.147Z,1001.83
2019-05-10T12:04:22.695Z,1001.83
2019-05-10T12:05:19.897Z,1001.80
2019-05-10T12:06:12.279Z,1001.77
2019-05-10T12:07:12.914Z,1001.76
2019-05-10T12:08:13.067Z,1001.83
2019-05-10T12:09:12.546Z,1001.77
2019-05-10T12:10:18.391Z,1001.77
2019-05-10T12:12:12.467Z,1001.76
2019-05-10T12:13:18.630Z,1001.81
2019-05-10T12:14:13.810Z,1001.83
2019-05-10T12:15:13.753Z,1001.82
2019-05-10T12:16:16.109Z,1001.97
2019-05-10T12:17:14.247Z,1002.14
2019-05-10T12:18:14.749Z,1002.13
2019-05-10T12:19:20.593Z,1001.99
2019-05-10T12:20:16.343Z,1001.87
2019-05-10T12:21:11.554Z,1001.88